Time;durP1;ratioP1;P1;durP2;ratioP2;P2;SDS_P1;SDS_P2;PMS_P1;PMS_P2;Temp;Humidity;BMP_temperature;BMP_pressure;BME280_temperature;BME280_humidity;BME280_pressure;Samples;Min_cycle;Max_cycle;Signal;HPM_P1;HPM_P2
2022/07/08 00:01:55;;;;;;;13.27;11.97;;;;;;;22.49;81.92;99322.50;5071609;28;20230;-64
2022/07/08 00:04:24;;;;;;;14.15;12.98;;;;;;;22.55;81.96;99319.66;5071184;28;20520;-62
2022/07/08 00:06:50;;;;;;;12.93;11.93;;;;;;;22.57;82.17;99319.63;5071466;28;20654;-62
2022/07/08 00:09:17;;;;;;;13.63;12.43;;;;;;;22.60;81.90;99320.38;5072064;28;20194;-64
2022/07/08 00:11:45;;;;;;;13.30;12.00;;;;;;;22.64;82.53;99323.75;5071643;28;20334;-62
2022/07/08 00:14:12;;;;;;;13.27;11.50;;;;;;;22.51;82.53;99318.06;5071566;28;20290;-64
2022/07/08 00:16:40;;;;;;;12.43;11.43;;;;;;;22.55;82.14;99329.28;5071424;28;20199;-62
2022/07/08 00:19:07;;;;;;;12.80;11.60;;;;;;;22.59;82.38;99321.28;5071457;28;20445;-64
2022/07/08 00:21:35;;;;;;;12.33;11.10;;;;;;;22.60;82.08;99320.38;5071276;28;20203;-63
2022/07/08 00:24:02;;;;;;;12.97;11.63;;;;;;;22.66;82.07;99322.78;5071129;28;20230;-63
2022/07/08 00:26:29;;;;;;;15.03;11.00;;;;;;;22.59;81.33;99326.50;5070978;28;20204;-64
2022/07/08 00:28:55;;;;;;;13.20;11.80;;;;;;;22.59;81.64;99325.63;5071124;28;20583;-62
2022/07/08 00:31:23;;;;;;;15.87;12.70;;;;;;;22.56;82.00;99324.00;5070865;28;20219;-64
2022/07/08 00:33:50;;;;;;;13.50;11.90;;;;;;;22.61;82.10;99326.44;5068605;28;20206;-64
2022/07/08 00:36:16;;;;;;;12.37;11.27;;;;;;;22.61;82.20;99321.19;5055166;28;20203;-62
2022/07/08 00:38:45;;;;;;;15.27;12.07;;;;;;;22.59;81.96;99315.16;5054608;28;20659;-63
2022/07/08 00:41:11;;;;;;;11.90;10.80;;;;;;;22.57;81.43;99319.63;5065299;28;20245;-64
2022/07/08 00:43:40;;;;;;;12.48;11.30;;;;;;;22.57;81.51;99315.25;5057466;28;20443;-63
2022/07/08 00:46:08;;;;;;;14.53;10.93;;;;;;;22.54;81.59;99311.84;5051253;28;20196;-63
2022/07/08 00:48:35;;;;;;;11.27;10.37;;;;;;;22.49;81.23;99305.94;5050805;28;20215;-63
2022/07/08 00:51:06;;;;;;;10.60;9.70;;;;;;;22.46;80.82;99306.03;5050337;28;20223;-63
2022/07/08 00:53:34;;;;;;;10.77;9.87;;;;;;;22.50;80.71;99307.63;5050954;28;20196;-62
2022/07/08 00:56:03;;;;;;;11.80;10.60;;;;;;;22.49;80.20;99295.47;5050994;28;20736;-64
2022/07/08 00:58:31;;;;;;;10.13;9.13;;;;;;;22.51;79.62;99301.50;5050264;28;20200;-63
2022/07/08 01:00:58;;;;;;;11.55;10.57;;;;;;;22.61;79.73;99306.34;5049594;28;20502;-63
2022/07/08 01:03:25;;;;;;;11.17;10.07;;;;;;;22.61;79.92;99298.50;5050617;28;20188;-62
2022/07/08 01:05:52;;;;;;;10.60;9.53;;;;;;;22.62;79.74;99300.22;5050642;28;20199;-63
2022/07/08 01:08:18;;;;;;;11.20;10.10;;;;;;;22.64;79.42;99306.28;5051037;28;20180;-63
2022/07/08 01:10:45;;;;;;;11.50;10.47;;;;;;;22.59;79.67;99308.16;5050570;28;20219;-63
2022/07/08 01:13:14;;;;;;;11.50;10.50;;;;;;;22.57;80.51;99307.38;5067158;28;20191;-63
2022/07/08 01:15:41;;;;;;;13.20;11.63;;;;;;;22.57;82.24;99309.13;5070790;28;20195;-63
2022/07/08 01:18:08;;;;;;;12.63;11.57;;;;;;;22.54;82.69;99304.88;5070812;28;20195;-63
2022/07/08 01:20:40;;;;;;;13.93;12.63;;;;;;;22.57;83.35;99301.28;5070694;28;20195;-64
2022/07/08 01:23:07;;;;;;;12.73;11.70;;;;;;;22.50;83.17;99289.28;5070720;28;20223;-63
2022/07/08 01:25:34;;;;;;;14.82;13.55;;;;;;;22.52;84.23;99297.97;5070304;28;20444;-62
2022/07/08 01:28:00;;;;;;;14.13;12.83;;;;;;;22.53;84.53;99289.19;5070834;28;20195;-64
2022/07/08 01:30:27;;;;;;;14.87;13.47;;;;;;;22.46;85.51;99291.19;5070570;28;20215;-62
2022/07/08 01:32:54;;;;;;;15.10;13.70;;;;;;;22.37;86.00;99288.88;5070882;28;20214;-63
2022/07/08 01:35:21;;;;;;;16.27;14.67;;;;;;;22.37;86.85;99290.63;5070643;28;20192;-62
2022/07/08 01:37:49;;;;;;;18.77;16.33;;;;;;;22.34;87.63;99291.59;5070742;28;20202;-62
2022/07/08 01:40:16;;;;;;;19.05;17.27;;;;;;;22.38;88.42;99298.47;5070046;28;20437;-63
2022/07/08 01:42:43;;;;;;;18.07;16.33;;;;;;;22.31;88.25;99305.66;5070694;28;20187;-63
2022/07/08 01:45:10;;;;;;;18.73;16.80;;;;;;;22.29;88.67;99297.00;5068280;28;20199;-63
2022/07/08 01:47:37;;;;;;;17.77;16.07;;;;;;;22.26;89.05;99294.50;5070417;28;20294;-64
2022/07/08 01:50:05;;;;;;;15.63;14.23;;;;;;;22.25;88.45;99302.38;5070568;28;20681;-63
2022/07/08 01:52:32;;;;;;;17.63;16.15;;;;;;;22.10;88.80;99298.53;5069690;28;20453;-64
2022/07/08 01:55:00;;;;;;;17.60;15.80;;;;;;;22.23;88.18;99297.22;5070647;28;20192;-64
2022/07/08 01:57:27;;;;;;;16.80;15.30;;;;;;;22.20;88.20;99299.06;5070503;28;20572;-62
2022/07/08 01:59:54;;;;;;;17.15;15.45;;;;;;;22.24;88.11;99300.69;5070451;28;20455;-64
2022/07/08 02:02:22;;;;;;;18.43;15.63;;;;;;;22.23;88.49;99304.19;5070231;28;20199;-64
2022/07/08 02:04:49;;;;;;;17.30;15.70;;;;;;;22.20;88.55;99299.94;5070640;28;20192;-62
2022/07/08 02:07:16;;;;;;;17.87;16.27;;;;;;;22.20;88.88;99299.06;5070341;28;20198;-62
2022/07/08 02:09:43;;;;;;;18.27;16.47;;;;;;;22.21;88.83;99300.78;5069652;28;20188;-64
2022/07/08 02:12:19;;;;;;;19.80;17.90;;;;;;;22.14;88.85;99300.13;5072303;28;20595;-63
2022/07/08 02:14:47;;;;;;;18.80;17.00;;;;;;;22.08;89.29;99307.34;5074266;28;20199;-62
2022/07/08 02:17:14;;;;;;;21.45;19.25;;;;;;;22.09;89.35;99306.41;5073089;28;20491;-61
2022/07/08 02:19:41;;;;;;;19.63;17.73;;;;;;;22.12;89.73;99309.81;5073563;28;20241;-63
2022/07/08 02:22:09;;;;;;;20.03;17.67;;;;;;;22.12;89.91;99309.81;5073832;28;20279;-61
2022/07/08 02:24:36;;;;;;;19.40;17.40;;;;;;;22.10;89.58;99313.38;5073870;28;20658;-61
2022/07/08 02:27:04;;;;;;;20.07;18.07;;;;;;;22.04;89.20;99324.91;5073975;28;20199;-63
2022/07/08 02:29:32;;;;;;;20.33;18.50;;;;;;;22.06;89.56;99307.38;5073925;28;20570;-63
2022/07/08 02:31:59;;;;;;;21.57;19.33;;;;;;;22.10;89.55;99316.84;5073927;28;20218;-63
2022/07/08 02:34:27;;;;;;;20.63;18.47;;;;;;;22.06;89.24;99307.38;5073498;28;20195;-61
2022/07/08 02:36:54;;;;;;;19.87;17.97;;;;;;;22.05;89.18;99325.75;5073506;28;20207;-63
2022/07/08 02:39:22;;;;;;;21.10;18.37;;;;;;;21.97;89.30;99323.41;5073904;28;20196;-63
2022/07/08 02:41:49;;;;;;;21.60;19.40;;;;;;;21.99;89.21;99331.19;5072863;28;20553;-63
2022/07/08 02:44:16;;;;;;;19.53;17.73;;;;;;;21.97;89.11;99335.63;5073258;28;20214;-63
2022/07/08 02:46:45;;;;;;;18.87;16.97;;;;;;;21.90;89.02;99331.47;5073680;28;20225;-63
2022/07/08 02:49:12;;;;;;;21.23;17.90;;;;;;;21.86;89.54;99337.69;5073194;28;20608;-61
2022/07/08 02:51:39;;;;;;;20.20;18.40;;;;;;;21.84;89.88;99332.50;5073315;28;20220;-64
2022/07/08 02:54:07;;;;;;;22.00;17.80;;;;;;;21.77;89.95;99333.59;5073312;28;20200;-62
2022/07/08 02:56:34;;;;;;;22.75;20.33;;;;;;;21.74;90.45;99331.94;5072742;28;20442;-62
2022/07/08 02:59:01;;;;;;;20.87;18.77;;;;;;;21.70;90.47;99329.47;5073411;28;20192;-64
2022/07/08 03:01:29;;;;;;;19.53;17.50;;;;;;;21.66;90.44;99344.41;5073550;28;20192;-62
2022/07/08 03:03:57;;;;;;;18.67;16.87;;;;;;;21.63;90.11;99334.03;5073441;28;20192;-63
2022/07/08 03:06:23;;;;;;;18.07;16.33;;;;;;;21.64;89.48;99347.97;5073121;28;20191;-63
2022/07/08 03:08:50;;;;;;;17.80;15.93;;;;;;;21.66;89.39;99343.56;5072940;28;20188;-63
2022/07/08 03:11:17;;;;;;;18.17;16.27;;;;;;;21.63;88.96;99349.72;5073074;28;20215;-63
2022/07/08 03:13:44;;;;;;;16.13;14.63;;;;;;;21.73;88.43;99350.28;5072687;28;20202;-63
2022/07/08 03:16:11;;;;;;;17.30;15.63;;;;;;;21.76;88.41;99351.06;5073149;28;20180;-63
2022/07/08 03:18:38;;;;;;;17.37;15.70;;;;;;;21.80;88.51;99350.97;5072568;28;20195;-63
2022/07/08 03:21:07;;;;;;;17.95;16.33;;;;;;;21.81;87.77;99353.50;5072405;28;20511;-63
2022/07/08 03:23:34;;;;;;;17.80;14.60;;;;;;;21.83;87.13;99356.97;5071710;28;20255;-62
2022/07/08 03:26:01;;;;;;;16.97;15.20;;;;;;;21.85;87.19;99356.91;5072660;28;20214;-63
2022/07/08 03:28:28;;;;;;;17.23;15.43;;;;;;;21.94;87.22;99352.28;5072698;28;20213;-63
2022/07/08 03:30:55;;;;;;;16.33;14.70;;;;;;;21.99;86.19;99347.75;5072246;28;20215;-63
2022/07/08 03:33:22;;;;;;;16.63;14.10;;;;;;;22.08;85.78;99346.59;5072496;28;20233;-62
2022/07/08 03:35:49;;;;;;;17.50;15.07;;;;;;;22.14;85.43;99342.00;5072789;28;20555;-64
2022/07/08 03:38:17;;;;;;;17.17;14.67;;;;;;;22.18;85.32;99348.00;5072375;28;20195;-63
2022/07/08 03:43:28;;;;;;;19.40;13.97;;;;;;;22.17;84.15;99347.13;5072587;28;20170;-64
2022/07/08 03:45:55;;;;;;;15.43;14.10;;;;;;;22.28;83.96;99347.63;5072391;28;20582;-62
2022/07/08 03:48:22;;;;;;;15.77;14.20;;;;;;;22.47;83.56;99347.88;5072386;28;20203;-63
2022/07/08 03:50:49;;;;;;;16.13;14.50;;;;;;;22.54;83.11;99345.91;5072535;28;20195;-64
2022/07/08 03:53:17;;;;;;;15.63;14.17;;;;;;;22.70;82.66;99353.22;5072302;28;20188;-64
2022/07/08 03:55:44;;;;;;;15.57;14.07;;;;;;;22.81;81.55;99356.31;5072388;28;20195;-62
2022/07/08 03:58:11;;;;;;;15.57;14.17;;;;;;;22.95;80.54;99353.19;5072301;28;20589;-62
2022/07/08 04:00:38;;;;;;;14.77;13.27;;;;;;;23.04;80.39;99352.88;5072272;28;20191;-63
2022/07/08 04:03:05;;;;;;;15.77;14.23;;;;;;;23.12;79.92;99358.69;5071328;28;20430;-63
2022/07/08 04:05:31;;;;;;;15.90;14.30;;;;;;;23.10;79.37;99351.78;5071145;28;20211;-63
2022/07/08 04:07:58;;;;;;;15.63;14.03;;;;;;;23.21;79.02;99352.25;5071074;28;20233;-62
2022/07/08 04:10:27;;;;;;;13.93;12.73;;;;;;;23.25;79.12;99356.44;5071985;28;20184;-62
2022/07/08 04:12:53;;;;;;;14.90;13.50;;;;;;;23.25;78.63;99357.31;5071348;28;20211;-63
2022/07/08 04:15:20;;;;;;;15.50;13.90;;;;;;;23.34;78.37;99351.72;5071828;28;20203;-61
2022/07/08 04:17:47;;;;;;;15.90;14.32;;;;;;;23.40;77.65;99346.25;5070940;28;20441;-63
2022/07/08 04:20:14;;;;;;;14.73;13.43;;;;;;;23.46;76.88;99346.03;5070678;28;20207;-63
2022/07/08 04:22:41;;;;;;;14.60;13.37;;;;;;;23.51;76.48;99351.13;5071299;28;20227;-63
2022/07/08 04:25:09;;;;;;;15.03;13.50;;;;;;;23.58;76.66;99363.06;5071367;28;20194;-61
2022/07/08 04:27:38;;;;;;;14.47;12.93;;;;;;;23.64;76.44;99356.75;5071376;28;20187;-63
2022/07/08 04:30:06;;;;;;;14.30;12.90;;;;;;;23.60;76.59;99358.63;5071189;28;20591;-61
2022/07/08 04:32:32;;;;;;;14.87;13.47;;;;;;;23.49;76.38;99361.66;5071198;28;20227;-63
2022/07/08 04:34:59;;;;;;;16.07;14.57;;;;;;;23.34;76.46;99359.59;5070190;28;20575;-62
2022/07/08 04:37:26;;;;;;;14.60;13.30;;;;;;;23.29;77.17;99358.88;5071124;28;20187;-64
2022/07/08 04:39:53;;;;;;;14.73;13.33;;;;;;;23.27;77.32;99360.72;5071016;28;20200;-64
2022/07/08 04:42:20;;;;;;;17.10;15.25;;;;;;;23.29;77.90;99361.50;5070589;28;20433;-63
2022/07/08 04:44:49;;;;;;;15.77;13.07;;;;;;;23.26;76.57;99366.03;5071054;28;20184;-62
2022/07/08 04:47:16;;;;;;;13.90;12.57;;;;;;;23.08;76.88;99353.59;5070829;28;20658;-63
2022/07/08 04:49:42;;;;;;;14.53;13.17;;;;;;;23.12;77.24;99366.53;5070689;28;20597;-63
2022/07/08 04:52:09;;;;;;;13.67;12.30;;;;;;;23.12;77.98;99352.59;5070594;28;20300;-63
2022/07/08 04:54:37;;;;;;;15.40;14.00;;;;;;;22.97;78.49;99346.13;5070714;28;20191;-63
2022/07/08 04:57:05;;;;;;;15.18;13.63;;;;;;;23.06;78.98;99365.91;5070227;28;20984;-63
2022/07/08 04:59:32;;;;;;;15.43;14.10;;;;;;;22.97;78.92;99364.47;5066872;28;20187;-63
2022/07/08 05:02:00;;;;;;;14.30;12.83;;;;;;;22.97;78.21;99360.97;5056340;28;20232;-62
2022/07/08 05:04:27;;;;;;;14.57;13.17;;;;;;;23.01;78.18;99357.34;5050851;28;20199;-64
2022/07/08 05:06:54;;;;;;;15.40;13.90;;;;;;;23.09;78.34;99360.56;5060401;28;20204;-63
2022/07/08 05:09:21;;;;;;;14.43;13.13;;;;;;;23.13;77.99;99364.78;5067597;28;20202;-63
2022/07/08 05:11:48;;;;;;;14.73;13.43;;;;;;;23.23;77.78;99363.53;5062221;28;20208;-62
2022/07/08 05:14:15;;;;;;;17.93;14.13;;;;;;;23.40;76.77;99359.38;5061752;28;20191;-63
2022/07/08 05:16:42;;;;;;;14.90;13.60;;;;;;;23.54;76.09;99364.09;5060355;28;20196;-62
2022/07/08 05:19:10;;;;;;;16.13;14.57;;;;;;;23.74;75.35;99374.69;5060769;28;20201;-58
2022/07/08 05:21:37;;;;;;;15.20;13.73;;;;;;;23.87;74.13;99365.41;5060559;28;20188;-57
2022/07/08 05:24:05;;;;;;;15.43;14.10;;;;;;;23.90;73.64;99373.16;5058776;28;20799;-57
2022/07/08 05:26:32;;;;;;;14.70;13.30;;;;;;;24.07;73.38;99375.13;5058593;28;20180;-57
2022/07/08 05:29:00;;;;;;;15.23;13.73;;;;;;;24.22;72.67;99374.53;5059995;28;20191;-57
2022/07/08 05:31:27;;;;;;;15.43;14.03;;;;;;;24.35;71.21;99381.00;5060118;28;20184;-57
2022/07/08 05:33:53;;;;;;;16.30;14.27;;;;;;;24.45;71.14;99374.41;5058429;28;20249;-57
2022/07/08 05:36:22;;;;;;;15.00;13.50;;;;;;;24.51;70.62;99378.56;5059664;28;20183;-57
2022/07/08 05:38:49;;;;;;;16.75;15.18;;;;;;;24.45;70.98;99378.81;5062651;28;20835;-58
2022/07/08 05:41:16;;;;;;;16.50;13.73;;;;;;;24.62;70.53;99378.97;5060408;28;20223;-57
2022/07/08 05:43:43;;;;;;;16.17;14.50;;;;;;;24.63;70.58;99381.53;5069566;28;20221;-58
2022/07/08 05:46:10;;;;;;;15.20;13.80;;;;;;;24.59;70.61;99379.09;5069651;28;20708;-58
2022/07/08 05:48:37;;;;;;;14.47;13.07;;;;;;;24.71;69.97;99385.59;5069943;28;20274;-58
2022/07/08 05:51:04;;;;;;;15.73;14.33;;;;;;;24.80;69.90;99380.84;5069933;28;20191;-58
2022/07/08 05:53:32;;;;;;;15.37;13.77;;;;;;;24.86;69.77;99382.38;5068040;28;20218;-58
2022/07/08 05:55:59;;;;;;;15.97;14.40;;;;;;;24.94;69.46;99381.06;5068281;28;20200;-58
2022/07/08 05:58:26;;;;;;;15.98;14.55;;;;;;;25.00;69.05;99385.22;5069531;28;20434;-59
2022/07/08 06:00:53;;;;;;;16.07;14.37;;;;;;;25.02;68.63;99381.63;5069702;28;20202;-58
2022/07/08 06:03:19;;;;;;;15.60;14.00;;;;;;;25.00;68.47;99391.34;5069498;28;20245;-58
2022/07/08 06:05:46;;;;;;;14.23;12.90;;;;;;;25.07;69.17;99389.31;5069905;28;20180;-57
2022/07/08 06:08:13;;;;;;;17.37;15.70;;;;;;;25.00;69.29;99391.34;5069509;28;20222;-58
2022/07/08 06:10:42;;;;;;;15.40;13.90;;;;;;;25.02;69.10;99394.78;5068920;28;20203;-57
2022/07/08 06:13:08;;;;;;;15.27;13.97;;;;;;;25.09;68.18;99387.44;5069209;28;20215;-58
2022/07/08 06:15:35;;;;;;;16.17;14.33;;;;;;;25.20;68.08;99388.69;5069617;28;20665;-57
2022/07/08 06:18:02;;;;;;;16.43;14.80;;;;;;;25.31;68.61;99384.72;5060613;28;20203;-58
2022/07/08 06:20:29;;;;;;;19.50;15.27;;;;;;;25.48;68.43;99387.47;5065550;28;20216;-58
2022/07/08 06:22:56;;;;;;;16.90;15.40;;;;;;;25.61;67.16;99385.97;5058767;28;20443;-58
2022/07/08 06:25:23;;;;;;;16.17;14.63;;;;;;;25.68;66.38;99382.13;5058339;28;20194;-58
2022/07/08 06:27:51;;;;;;;15.70;14.07;;;;;;;25.86;66.24;99381.25;5060187;28;20198;-63
2022/07/08 06:30:18;;;;;;;14.63;13.37;;;;;;;25.94;65.48;99371.22;5059182;28;20216;-63
2022/07/08 06:32:45;;;;;;;14.95;13.45;;;;;;;26.10;64.60;99369.53;5062139;28;20211;-64
2022/07/08 06:35:12;;;;;;;14.75;13.35;;;;;;;26.14;64.46;99365.00;5069651;28;20590;-64
2022/07/08 06:37:39;;;;;;;14.37;12.87;;;;;;;26.27;62.93;99374.88;5067203;28;20204;-64
2022/07/08 06:40:07;;;;;;;14.13;12.80;;;;;;;26.40;62.55;99359.28;5062248;28;20188;-63
2022/07/08 06:42:34;;;;;;;15.88;14.48;;;;;;;26.47;62.84;99362.47;5066903;28;20203;-64
2022/07/08 06:45:02;;;;;;;16.35;14.90;;;;;;;26.50;62.76;99359.69;5068741;28;20511;-63
2022/07/08 06:47:29;;;;;;;14.88;13.55;;;;;;;26.42;62.24;99362.72;5069383;28;20510;-64
2022/07/08 06:49:56;;;;;;;17.75;14.68;;;;;;;26.40;63.26;99351.38;5069342;28;20180;-65
2022/07/08 06:52:23;;;;;;;14.63;13.13;;;;;;;26.51;63.38;99356.97;5066233;28;20215;-65
2022/07/08 06:54:50;;;;;;;15.18;13.85;;;;;;;26.60;63.14;99356.50;5057307;28;20650;-65
2022/07/08 06:57:17;;;;;;;15.70;13.85;;;;;;;26.57;63.08;99355.78;5063437;28;20207;-64
2022/07/08 06:59:44;;;;;;;17.10;12.80;;;;;;;26.74;63.25;99361.06;5067244;28;20200;-64
2022/07/08 07:02:12;;;;;;;15.23;13.93;;;;;;;26.77;61.83;99358.28;5063752;28;20447;-64
2022/07/08 07:04:39;;;;;;;13.65;12.23;;;;;;;26.79;61.29;99356.44;5065792;28;20188;-64
2022/07/08 07:07:06;;;;;;;14.18;12.88;;;;;;;26.70;60.94;99354.25;5072661;28;20210;-64
2022/07/08 07:09:33;;;;;;;13.73;12.20;;;;;;;26.54;61.46;99354.16;5057648;28;20272;-63
2022/07/08 07:11:59;;;;;;;13.73;11.77;;;;;;;26.63;60.48;99355.50;5052332;28;20207;-63
2022/07/08 07:14:27;;;;;;;12.93;11.63;;;;;;;26.62;60.74;99351.13;5052757;28;20207;-64
2022/07/08 07:16:54;;;;;;;12.93;11.73;;;;;;;26.74;60.00;99355.78;5052615;28;20218;-64
2022/07/08 07:19:22;;;;;;;13.23;12.02;;;;;;;26.90;59.93;99354.09;5052513;28;20666;-64
2022/07/08 07:21:49;;;;;;;13.60;12.43;;;;;;;26.80;60.32;99345.81;5052651;28;20196;-63
2022/07/08 07:24:16;;;;;;;12.93;11.82;;;;;;;26.67;60.93;99343.88;5052677;28;20327;-63
2022/07/08 07:26:42;;;;;;;14.60;13.40;;;;;;;26.26;62.15;99338.91;5069736;28;20261;-65
2022/07/08 07:29:10;;;;;;;13.52;12.38;;;;;;;26.53;61.89;99325.28;5070428;28;20377;-64
2022/07/08 07:31:37;;;;;;;14.45;13.23;;;;;;;26.79;61.30;99340.63;5072571;28;20195;-64
2022/07/08 07:34:04;;;;;;;14.75;12.25;;;;;;;26.89;60.96;99339.22;5058125;28;20232;-65
2022/07/08 07:36:32;;;;;;;12.70;11.50;;;;;;;26.95;60.55;99336.25;5052422;28;20211;-65
2022/07/08 07:38:59;;;;;;;12.73;11.73;;;;;;;26.98;59.00;99336.06;5052102;28;20701;-65
2022/07/08 07:41:27;;;;;;;13.53;12.17;;;;;;;27.19;59.68;99327.03;5050990;28;20212;-64
2022/07/08 07:43:54;;;;;;;13.80;12.60;;;;;;;27.39;59.00;99329.44;5049206;28;20501;-64
2022/07/08 07:46:21;;;;;;;14.70;12.38;;;;;;;27.52;58.60;99335.75;5052298;28;20199;-64
2022/07/08 07:48:48;;;;;;;14.10;12.70;;;;;;;27.67;58.02;99330.56;5050071;28;20207;-65
2022/07/08 07:51:14;;;;;;;17.85;12.40;;;;;;;27.73;58.23;99338.16;5050227;28;20216;-64
2022/07/08 07:53:43;;;;;;;13.75;12.23;;;;;;;27.93;57.20;99341.38;5049909;28;20220;-63
2022/07/08 07:56:09;;;;;;;13.50;11.98;;;;;;;27.91;55.48;99335.31;5050365;28;20750;-65
2022/07/08 07:58:38;;;;;;;13.25;12.15;;;;;;;28.03;56.34;99336.44;5049180;28;20200;-65
2022/07/08 08:01:05;;;;;;;13.82;12.63;;;;;;;28.06;55.98;99334.47;5049046;28;20303;-64
2022/07/08 08:03:32;;;;;;;13.60;12.30;;;;;;;28.06;55.22;99323.06;5050080;28;20189;-65
2022/07/08 08:05:59;;;;;;;13.80;12.50;;;;;;;28.03;55.99;99329.38;5050272;28;20200;-64
2022/07/08 08:08:26;;;;;;;13.55;12.50;;;;;;;27.91;56.13;99326.53;5049543;28;20834;-65
2022/07/08 08:10:54;;;;;;;14.35;12.95;;;;;;;28.06;55.49;99323.06;5049998;28;20540;-64
2022/07/08 08:13:21;;;;;;;17.88;16.38;;;;;;;28.16;54.37;99331.28;5050146;28;20216;-63
2022/07/08 08:15:48;;;;;;;14.50;13.20;;;;;;;27.99;54.97;99321.69;5050506;28;20571;-64
2022/07/08 08:18:15;;;;;;;14.15;12.85;;;;;;;28.05;55.21;99316.91;5050802;28;20192;-64
2022/07/08 08:20:42;;;;;;;14.18;12.82;;;;;;;28.19;55.23;99320.53;5050851;28;20188;-64
2022/07/08 08:23:09;;;;;;;15.68;14.05;;;;;;;27.83;55.20;99291.78;5050414;28;20220;-64
2022/07/08 08:25:36;;;;;;;15.23;13.75;;;;;;;28.06;56.03;99312.50;5050071;28;20434;-65
2022/07/08 08:28:05;;;;;;;14.02;12.68;;;;;;;28.19;55.13;99310.84;5051050;28;20246;-65
2022/07/08 08:30:32;;;;;;;14.35;13.05;;;;;;;28.26;54.75;99304.25;5050839;28;20196;-65
2022/07/08 08:32:59;;;;;;;14.82;13.52;;;;;;;28.29;54.04;99297.94;5050143;28;20242;-63
2022/07/08 08:35:26;;;;;;;13.40;12.20;;;;;;;28.13;54.83;99299.78;5050340;28;20198;-64
2022/07/08 08:37:53;;;;;;;15.48;14.02;;;;;;;28.09;56.74;99291.19;5050534;28;20196;-65
2022/07/08 08:40:22;;;;;;;15.50;14.15;;;;;;;28.20;55.77;99298.47;5050667;28;20188;-65
2022/07/08 08:42:49;;;;;;;17.23;13.57;;;;;;;28.27;54.89;99298.00;5050678;28;20188;-65
2022/07/08 08:45:17;;;;;;;19.05;17.38;;;;;;;28.40;54.76;99296.38;5050278;28;20192;-65
2022/07/08 08:47:48;;;;;;;14.82;13.48;;;;;;;28.53;54.65;99292.03;5050106;28;20192;-65
2022/07/08 08:53:03;;;;;;;14.82;13.43;;;;;;;28.89;53.12;99304.84;5049937;28;20223;-64
2022/07/08 08:55:31;;;;;;;12.57;11.48;;;;;;;28.84;51.38;99290.22;5049492;28;20242;-65
2022/07/08 08:57:59;;;;;;;13.05;12.05;;;;;;;28.90;51.50;99289.84;5049580;28;20192;-65
2022/07/08 09:00:29;;;;;;;12.20;11.30;;;;;;;28.85;50.95;99292.75;5049434;28;20188;-65
2022/07/08 09:02:57;;;;;;;14.20;13.05;;;;;;;28.73;52.52;99288.22;5049653;28;20195;-64
2022/07/08 09:05:25;;;;;;;14.20;12.88;;;;;;;28.96;52.19;99263.84;5049805;28;20200;-64
2022/07/08 09:07:53;;;;;;;15.02;13.77;;;;;;;29.03;52.36;99280.19;5048527;28;20893;-64
2022/07/08 09:10:20;;;;;;;14.02;12.65;;;;;;;28.55;53.04;99236.41;5049509;28;20866;-64
2022/07/08 09:13:06;;;;;;;14.20;13.00;;;;;;;29.03;51.34;99283.69;5049298;28;20220;-65
2022/07/08 09:15:37;;;;;;;11.30;10.20;;;;;;;28.91;49.41;99278.28;5049991;28;20196;-64
2022/07/08 09:18:05;;;;;;;11.80;10.73;;;;;;;29.08;48.56;99278.09;5049675;28;20192;-64
2022/07/08 09:20:43;;;;;;;11.07;8.98;;;;;;;29.34;48.05;99269.38;5049880;28;20255;-65
2022/07/08 09:23:12;;;;;;;9.20;8.55;;;;;;;29.24;46.58;99278.88;5063850;28;20231;-64
2022/07/08 09:25:39;;;;;;;9.55;8.75;;;;;;;29.22;46.78;99265.75;5067909;28;20731;-65
2022/07/08 09:28:06;;;;;;;12.32;11.25;;;;;;;29.35;47.17;99271.09;5066469;28;20582;-65
2022/07/08 09:30:33;;;;;;;11.50;10.40;;;;;;;29.46;48.12;99263.31;5062741;28;20437;-64
2022/07/08 09:33:02;;;;;;;10.23;9.48;;;;;;;29.72;47.30;99259.81;5057881;28;20208;-64
2022/07/08 09:35:36;;;;;;;10.07;9.07;;;;;;;29.70;46.17;99267.00;5059861;28;20215;-65
2022/07/08 09:38:05;;;;;;;11.05;10.25;;;;;;;29.61;46.61;99259.66;5066805;28;20547;-64
2022/07/08 09:40:33;;;;;;;16.85;10.38;;;;;;;29.79;47.53;99255.84;5064640;28;20197;-64
2022/07/08 09:43:01;;;;;;;10.60;9.60;;;;;;;29.91;46.20;99256.00;5064614;28;20171;-64
2022/07/08 09:45:30;;;;;;;11.43;9.48;;;;;;;29.93;45.46;99254.06;5068368;28;20696;-64
2022/07/08 09:48:07;;;;;;;10.80;9.48;;;;;;;30.05;46.02;99250.63;5068038;28;20198;-64
2022/07/08 09:50:35;;;;;;;9.02;8.30;;;;;;;30.09;45.62;99244.16;5061482;28;20612;-65
2022/07/08 09:53:18;;;;;;;9.13;8.25;;;;;;;30.13;45.29;99256.25;5058695;28;20709;-64
2022/07/08 09:55:47;;;;;;;8.88;8.18;;;;;;;30.13;45.29;99248.31;5065255;28;20211;-65
2022/07/08 09:58:15;;;;;;;8.80;8.00;;;;;;;29.73;45.03;99242.13;5058791;28;20191;-59
2022/07/08 10:00:44;;;;;;;9.30;8.50;;;;;;;29.87;47.11;99239.44;5063137;28;20195;-59
2022/07/08 10:03:12;;;;;;;8.60;7.93;;;;;;;29.99;45.36;99243.06;5059046;28;20192;-59
2022/07/08 10:05:40;;;;;;;9.15;8.43;;;;;;;29.56;44.66;99237.06;5063311;28;20227;-58
2022/07/08 10:08:08;;;;;;;8.77;7.97;;;;;;;29.66;45.56;99232.88;5058824;28;20745;-59
2022/07/08 10:10:35;;;;;;;9.70;8.85;;;;;;;29.72;45.34;99222.72;5058992;28;20257;-58
2022/07/08 10:13:03;;;;;;;7.97;7.38;;;;;;;29.61;44.55;99219.94;5057633;28;20219;-59
2022/07/08 10:15:31;;;;;;;8.13;7.32;;;;;;;29.38;44.84;99231.19;5068969;28;20217;-59
2022/07/08 10:18:04;;;;;;;8.23;7.60;;;;;;;29.36;45.52;99224.28;5069221;28;20624;-59
2022/07/08 10:20:34;;;;;;;10.88;9.85;;;;;;;29.45;45.09;99207.78;5069393;28;20261;-58
2022/07/08 10:23:06;;;;;;;8.90;8.07;;;;;;;29.74;45.26;99209.38;5068860;28;20609;-58
2022/07/08 10:25:33;;;;;;;7.38;6.72;;;;;;;29.71;43.71;99204.28;5069225;28;20272;-59
2022/07/08 10:28:08;;;;;;;7.10;6.60;;;;;;;29.83;44.04;99204.34;5066250;28;20446;-59
2022/07/08 10:30:50;;;;;;;7.95;7.32;;;;;;;29.78;43.13;99160.53;5068798;28;20195;-59
2022/07/08 10:33:24;;;;;;;6.80;6.10;;;;;;;29.90;41.43;99188.03;5070271;28;20222;-58
2022/07/08 10:36:06;;;;;;;6.65;6.15;;;;;;;29.80;42.10;99180.69;5072442;28;20203;-58
2022/07/08 10:38:38;;;;;;;8.45;6.82;;;;;;;29.91;42.26;99187.97;5052628;28;20280;-59
2022/07/08 10:41:07;;;;;;;7.53;6.82;;;;;;;30.07;43.04;99185.09;5053200;28;20218;-58
2022/07/08 10:43:34;;;;;;;8.90;8.10;;;;;;;30.21;43.22;99177.06;5052553;28;20215;-59
2022/07/08 10:46:04;;;;;;;9.80;8.95;;;;;;;30.42;43.21;99183.53;5063880;28;20274;-58
2022/07/08 10:48:47;;;;;;;8.20;7.60;;;;;;;30.42;42.61;99188.84;5062220;28;20554;-58
2022/07/08 10:51:50;;;;;;;7.47;6.85;;;;;;;30.26;42.88;99183.75;5059183;28;20443;-58
2022/07/08 10:54:29;;;;;;;7.32;6.72;;;;;;;30.31;42.30;99162.19;5063675;28;20230;-58
2022/07/08 10:56:58;;;;;;;8.10;7.43;;;;;;;30.56;42.28;99166.66;5072169;28;20200;-58
2022/07/08 10:59:26;;;;;;;7.13;6.63;;;;;;;30.70;41.36;99170.03;5071830;28;20202;-58
2022/07/08 11:01:55;;;;;;;9.23;7.72;;;;;;;30.84;40.87;99167.25;5071825;28;20279;-58
2022/07/08 11:04:43;;;;;;;7.78;7.03;;;;;;;31.06;40.79;99165.72;5072226;28;20188;-58
2022/07/08 11:07:31;;;;;;;6.55;6.00;;;;;;;31.12;40.18;99155.53;5072068;28;20195;-58
2022/07/08 11:10:06;;;;;;;7.38;6.60;;;;;;;31.30;39.80;99156.81;5071000;28;20436;-58
2022/07/08 11:12:34;;;;;;;6.95;5.97;;;;;;;31.42;38.81;99139.97;5072520;28;20202;-57
2022/07/08 11:15:04;;;;;;;12.85;11.20;;;;;;;31.48;39.74;99141.38;5071988;28;20670;-63
2022/07/08 11:17:33;;;;;;;7.90;6.55;;;;;;;31.52;39.24;99140.16;5072174;28;20199;-64
2022/07/08 11:20:02;;;;;;;6.75;6.25;;;;;;;31.63;39.24;99139.34;5071708;28;20658;-64
2022/07/08 11:22:34;;;;;;;5.68;5.28;;;;;;;31.77;37.82;99145.31;5071674;28;20235;-65
2022/07/08 11:25:01;;;;;;;7.85;6.32;;;;;;;31.66;38.43;99139.13;5071775;28;20187;-65
2022/07/08 11:27:31;;;;;;;6.57;6.07;;;;;;;31.56;37.93;99130.16;5071234;28;20191;-65
2022/07/08 11:29:58;;;;;;;7.90;7.20;;;;;;;31.65;38.56;99137.41;5071067;28;20196;-65